sensor_id;sensor_type;location;lat;lon;timestamp;temperature;humidity
285;DHT22;127;48.770;9.212;2022-10-16T00:02:03;15.90;99.90
285;DHT22;127;48.770;9.212;2022-10-16T00:04:37;16.00;99.90
285;DHT22;127;48.770;9.212;2022-10-16T00:07:10;16.00;99.90
285;DHT22;127;48.770;9.212;2022-10-16T00:09:41;16.00;99.90
285;DHT22;127;48.770;9.212;2022-10-16T00:12:12;16.00;99.90
285;DHT22;127;48.770;9.212;2022-10-16T00:14:41;15.90;99.90
285;DHT22;127;48.770;9.212;2022-10-16T00:17:09;15.80;99.90
285;DHT22;127;48.770;9.212;2022-10-16T00:19:43;15.60;99.90
285;DHT22;127;48.770;9.212;2022-10-16T00:22:14;15.60;99.90
285;DHT22;127;48.770;9.212;2022-10-16T00:24:43;15.50;99.90
285;DHT22;127;48.770;9.212;2022-10-16T00:27:12;15.50;99.90
285;DHT22;127;48.770;9.212;2022-10-16T00:29:41;15.50;99.90
285;DHT22;127;48.770;9.212;2022-10-16T00:32:10;15.40;99.90
285;DHT22;127;48.770;9.212;2022-10-16T00:34:42;15.40;99.90
285;DHT22;127;48.770;9.212;2022-10-16T00:37:13;15.40;99.90
285;DHT22;127;48.770;9.212;2022-10-16T00:39:51;15.30;99.90
285;DHT22;127;48.770;9.212;2022-10-16T00:42:25;15.20;99.90
285;DHT22;127;48.770;9.212;2022-10-16T00:44:57;15.20;99.90
285;DHT22;127;48.770;9.212;2022-10-16T00:47:29;15.20;99.90
285;DHT22;127;48.770;9.212;2022-10-16T00:50:08;15.20;99.90
285;DHT22;127;48.770;9.212;2022-10-16T00:52:47;15.10;99.90
285;DHT22;127;48.770;9.212;2022-10-16T00:55:17;15.10;99.90
285;DHT22;127;48.770;9.212;2022-10-16T00:57:48;15.10;99.90
285;DHT22;127;48.770;9.212;2022-10-16T01:00:20;15.10;99.90
285;DHT22;127;48.770;9.212;2022-10-16T01:06:04;15.10;99.90
285;DHT22;127;48.770;9.212;2022-10-16T01:09:01;15.00;99.90
285;DHT22;127;48.770;9.212;2022-10-16T01:11:35;15.00;99.90
285;DHT22;127;48.770;9.212;2022-10-16T01:14:13;15.00;99.90
285;DHT22;127;48.770;9.212;2022-10-16T01:16:49;15.00;99.90
285;DHT22;127;48.770;9.212;2022-10-16T01:19:36;15.00;99.90
285;DHT22;127;48.770;9.212;2022-10-16T01:22:11;15.10;99.90
285;DHT22;127;48.770;9.212;2022-10-16T01:24:45;15.10;99.90
285;DHT22;127;48.770;9.212;2022-10-16T01:27:22;15.20;99.90
285;DHT22;127;48.770;9.212;2022-10-16T01:30:04;15.20;99.90
285;DHT22;127;48.770;9.212;2022-10-16T01:32:39;15.30;99.90
285;DHT22;127;48.770;9.212;2022-10-16T01:35:14;15.30;99.90
285;DHT22;127;48.770;9.212;2022-10-16T01:37:51;15.20;99.90
285;DHT22;127;48.770;9.212;2022-10-16T01:40:26;15.20;99.90
285;DHT22;127;48.770;9.212;2022-10-16T01:43:10;15.20;99.90
285;DHT22;127;48.770;9.212;2022-10-16T01:45:48;15.30;99.90
285;DHT22;127;48.770;9.212;2022-10-16T01:48:24;15.30;99.90
285;DHT22;127;48.770;9.212;2022-10-16T01:50:56;15.20;99.90
285;DHT22;127;48.770;9.212;2022-10-16T01:53:27;15.30;99.90
285;DHT22;127;48.770;9.212;2022-10-16T01:56:06;15.30;99.90
285;DHT22;127;48.770;9.212;2022-10-16T02:01:27;15.20;99.90
285;DHT22;127;48.770;9.212;2022-10-16T02:04:09;15.20;99.90
285;DHT22;127;48.770;9.212;2022-10-16T02:06:39;15.30;99.90
285;DHT22;127;48.770;9.212;2022-10-16T02:09:08;15.30;99.90
285;DHT22;127;48.770;9.212;2022-10-16T02:11:41;15.30;99.90
285;DHT22;127;48.770;9.212;2022-10-16T02:14:19;15.30;99.90
285;DHT22;127;48.770;9.212;2022-10-16T02:16:50;15.30;99.90
285;DHT22;127;48.770;9.212;2022-10-16T02:19:21;15.30;99.90
285;DHT22;127;48.770;9.212;2022-10-16T02:21:56;15.40;99.90
285;DHT22;127;48.770;9.212;2022-10-16T02:24:30;15.50;99.90
285;DHT22;127;48.770;9.212;2022-10-16T02:27:05;15.50;99.90
285;DHT22;127;48.770;9.212;2022-10-16T02:29:40;15.60;99.90
285;DHT22;127;48.770;9.212;2022-10-16T02:32:13;15.60;99.90
285;DHT22;127;48.770;9.212;2022-10-16T02:34:44;15.70;99.90
285;DHT22;127;48.770;9.212;2022-10-16T02:37:13;15.70;99.90
285;DHT22;127;48.770;9.212;2022-10-16T02:39:42;15.70;99.90
285;DHT22;127;48.770;9.212;2022-10-16T02:42:12;15.70;99.90
285;DHT22;127;48.770;9.212;2022-10-16T02:44:43;15.70;99.90
285;DHT22;127;48.770;9.212;2022-10-16T02:47:14;15.80;99.90
285;DHT22;127;48.770;9.212;2022-10-16T02:49:51;15.80;99.90
285;DHT22;127;48.770;9.212;2022-10-16T02:52:25;15.80;99.90
285;DHT22;127;48.770;9.212;2022-10-16T02:54:54;15.90;99.90
285;DHT22;127;48.770;9.212;2022-10-16T02:57:26;15.70;99.90
285;DHT22;127;48.770;9.212;2022-10-16T02:59:57;15.70;99.90
285;DHT22;127;48.770;9.212;2022-10-16T03:02:26;15.70;99.90
285;DHT22;127;48.770;9.212;2022-10-16T03:04:55;15.70;99.90
285;DHT22;127;48.770;9.212;2022-10-16T03:07:24;15.70;99.90
285;DHT22;127;48.770;9.212;2022-10-16T03:09:53;15.70;99.90
285;DHT22;127;48.770;9.212;2022-10-16T03:12:26;15.70;99.90
285;DHT22;127;48.770;9.212;2022-10-16T03:15:07;15.70;99.90
285;DHT22;127;48.770;9.212;2022-10-16T03:17:37;15.70;99.90
285;DHT22;127;48.770;9.212;2022-10-16T03:20:10;15.60;99.90
285;DHT22;127;48.770;9.212;2022-10-16T03:22:39;15.60;99.90
285;DHT22;127;48.770;9.212;2022-10-16T03:25:10;15.50;99.90
285;DHT22;127;48.770;9.212;2022-10-16T03:27:45;15.60;99.90
285;DHT22;127;48.770;9.212;2022-10-16T03:30:22;15.50;99.90
285;DHT22;127;48.770;9.212;2022-10-16T03:32:51;15.50;99.90
285;DHT22;127;48.770;9.212;2022-10-16T03:35:21;15.50;99.90
285;DHT22;127;48.770;9.212;2022-10-16T03:37:49;15.30;99.90
285;DHT22;127;48.770;9.212;2022-10-16T03:40:18;15.20;99.90
285;DHT22;127;48.770;9.212;2022-10-16T03:42:46;15.30;99.90
285;DHT22;127;48.770;9.212;2022-10-16T03:45:15;15.30;99.90
285;DHT22;127;48.770;9.212;2022-10-16T03:47:46;15.20;99.90
285;DHT22;127;48.770;9.212;2022-10-16T03:50:15;15.00;99.90
285;DHT22;127;48.770;9.212;2022-10-16T03:52:44;14.90;99.90
285;DHT22;127;48.770;9.212;2022-10-16T03:55:13;14.90;99.90
285;DHT22;127;48.770;9.212;2022-10-16T03:57:42;14.90;99.90
285;DHT22;127;48.770;9.212;2022-10-16T04:00:11;14.80;99.90
285;DHT22;127;48.770;9.212;2022-10-16T04:02:40;14.80;99.90
285;DHT22;127;48.770;9.212;2022-10-16T04:05:11;14.60;1.00
285;DHT22;127;48.770;9.212;2022-10-16T04:07:40;14.50;1.00
285;DHT22;127;48.770;9.212;2022-10-16T04:10:09;14.60;1.00
285;DHT22;127;48.770;9.212;2022-10-16T04:12:38;14.60;1.00
285;DHT22;127;48.770;9.212;2022-10-16T04:15:08;14.60;1.00
285;DHT22;127;48.770;9.212;2022-10-16T04:17:36;14.60;1.00
285;DHT22;127;48.770;9.212;2022-10-16T04:20:06;14.60;1.00
285;DHT22;127;48.770;9.212;2022-10-16T04:22:37;14.70;1.00
285;DHT22;127;48.770;9.212;2022-10-16T04:25:07;14.70;99.90
285;DHT22;127;48.770;9.212;2022-10-16T04:27:36;14.80;1.00
285;DHT22;127;48.770;9.212;2022-10-16T04:30:06;14.80;99.90
285;DHT22;127;48.770;9.212;2022-10-16T04:32:35;14.80;99.90
285;DHT22;127;48.770;9.212;2022-10-16T04:35:04;14.80;99.90
285;DHT22;127;48.770;9.212;2022-10-16T04:37:33;14.70;99.90
285;DHT22;127;48.770;9.212;2022-10-16T04:40:05;14.80;99.90
285;DHT22;127;48.770;9.212;2022-10-16T04:42:34;14.90;99.90
285;DHT22;127;48.770;9.212;2022-10-16T04:45:03;15.00;99.90
285;DHT22;127;48.770;9.212;2022-10-16T04:47:33;15.00;99.90
285;DHT22;127;48.770;9.212;2022-10-16T04:50:02;15.00;99.90
285;DHT22;127;48.770;9.212;2022-10-16T04:52:30;15.20;99.90
285;DHT22;127;48.770;9.212;2022-10-16T04:54:59;15.20;99.90
285;DHT22;127;48.770;9.212;2022-10-16T04:57:31;15.30;99.90
285;DHT22;127;48.770;9.212;2022-10-16T05:00:00;15.40;99.90
285;DHT22;127;48.770;9.212;2022-10-16T05:02:29;15.30;99.90
285;DHT22;127;48.770;9.212;2022-10-16T05:04:57;15.40;99.90
285;DHT22;127;48.770;9.212;2022-10-16T05:07:26;15.40;99.90
285;DHT22;127;48.770;9.212;2022-10-16T05:09:55;15.30;99.90
285;DHT22;127;48.770;9.212;2022-10-16T05:12:23;15.30;99.90
285;DHT22;127;48.770;9.212;2022-10-16T05:14:54;15.30;99.90
285;DHT22;127;48.770;9.212;2022-10-16T05:17:24;15.30;99.90
285;DHT22;127;48.770;9.212;2022-10-16T05:19:53;15.30;99.90
285;DHT22;127;48.770;9.212;2022-10-16T05:22:21;15.30;99.90
285;DHT22;127;48.770;9.212;2022-10-16T05:24:53;15.20;99.90
285;DHT22;127;48.770;9.212;2022-10-16T05:27:22;14.90;99.90
285;DHT22;127;48.770;9.212;2022-10-16T05:29:53;14.90;99.90
285;DHT22;127;48.770;9.212;2022-10-16T05:32:22;14.80;99.90
285;DHT22;127;48.770;9.212;2022-10-16T05:34:50;14.70;99.90
285;DHT22;127;48.770;9.212;2022-10-16T05:37:19;14.70;99.90
285;DHT22;127;48.770;9.212;2022-10-16T05:39:48;14.60;99.90
285;DHT22;127;48.770;9.212;2022-10-16T05:42:16;14.60;99.90
285;DHT22;127;48.770;9.212;2022-10-16T05:44:45;14.60;99.90
285;DHT22;127;48.770;9.212;2022-10-16T05:47:16;14.50;1.00
285;DHT22;127;48.770;9.212;2022-10-16T05:49:46;14.50;1.00
285;DHT22;127;48.770;9.212;2022-10-16T05:52:15;14.50;1.00
285;DHT22;127;48.770;9.212;2022-10-16T05:54:43;14.40;1.00
285;DHT22;127;48.770;9.212;2022-10-16T05:57:12;14.40;1.00
285;DHT22;127;48.770;9.212;2022-10-16T05:59:41;14.50;1.00
285;DHT22;127;48.770;9.212;2022-10-16T06:02:12;14.60;1.00
285;DHT22;127;48.770;9.212;2022-10-16T06:04:44;14.70;99.90
285;DHT22;127;48.770;9.212;2022-10-16T06:07:12;14.70;99.90
285;DHT22;127;48.770;9.212;2022-10-16T06:09:41;14.90;99.90
285;DHT22;127;48.770;9.212;2022-10-16T06:12:09;14.90;99.90
285;DHT22;127;48.770;9.212;2022-10-16T06:14:38;15.00;99.90
285;DHT22;127;48.770;9.212;2022-10-16T06:17:07;15.00;99.90
285;DHT22;127;48.770;9.212;2022-10-16T06:19:35;15.10;99.90
285;DHT22;127;48.770;9.212;2022-10-16T06:22:07;15.10;99.90
285;DHT22;127;48.770;9.212;2022-10-16T06:24:36;15.30;99.90
285;DHT22;127;48.770;9.212;2022-10-16T06:27:05;15.30;99.90
285;DHT22;127;48.770;9.212;2022-10-16T06:29:33;15.50;99.90
285;DHT22;127;48.770;9.212;2022-10-16T06:32:02;15.50;99.90
285;DHT22;127;48.770;9.212;2022-10-16T06:34:30;15.30;99.90
285;DHT22;127;48.770;9.212;2022-10-16T06:36:59;15.40;99.90
285;DHT22;127;48.770;9.212;2022-10-16T06:39:30;15.50;99.90
285;DHT22;127;48.770;9.212;2022-10-16T06:41:59;15.50;99.90
285;DHT22;127;48.770;9.212;2022-10-16T06:44:28;15.60;99.90
285;DHT22;127;48.770;9.212;2022-10-16T06:46:56;15.70;99.90
285;DHT22;127;48.770;9.212;2022-10-16T06:49:25;15.70;99.90
285;DHT22;127;48.770;9.212;2022-10-16T06:51:54;15.70;99.90
285;DHT22;127;48.770;9.212;2022-10-16T06:54:25;15.70;99.90
285;DHT22;127;48.770;9.212;2022-10-16T06:56:56;15.80;99.90
285;DHT22;127;48.770;9.212;2022-10-16T06:59:25;15.90;99.90
285;DHT22;127;48.770;9.212;2022-10-16T07:01:54;16.00;99.90
285;DHT22;127;48.770;9.212;2022-10-16T07:04:23;16.10;99.90
285;DHT22;127;48.770;9.212;2022-10-16T07:06:51;16.20;99.90
285;DHT22;127;48.770;9.212;2022-10-16T07:09:20;16.10;99.90
285;DHT22;127;48.770;9.212;2022-10-16T07:11:51;16.20;99.90
285;DHT22;127;48.770;9.212;2022-10-16T07:14:22;16.30;99.90
285;DHT22;127;48.770;9.212;2022-10-16T07:16:51;16.40;99.90
285;DHT22;127;48.770;9.212;2022-10-16T07:19:20;16.60;99.90
285;DHT22;127;48.770;9.212;2022-10-16T07:21:48;16.70;99.90
285;DHT22;127;48.770;9.212;2022-10-16T07:24:17;16.70;99.90
285;DHT22;127;48.770;9.212;2022-10-16T07:26:46;16.80;99.90
285;DHT22;127;48.770;9.212;2022-10-16T07:29:16;17.00;99.90
285;DHT22;127;48.770;9.212;2022-10-16T07:31:49;16.90;99.90
285;DHT22;127;48.770;9.212;2022-10-16T07:34:18;16.90;99.90
285;DHT22;127;48.770;9.212;2022-10-16T07:36:48;16.90;99.90
285;DHT22;127;48.770;9.212;2022-10-16T07:39:17;16.80;99.90
285;DHT22;127;48.770;9.212;2022-10-16T07:41:46;16.90;99.90
285;DHT22;127;48.770;9.212;2022-10-16T07:44:15;16.80;99.90
285;DHT22;127;48.770;9.212;2022-10-16T07:46:44;16.90;99.90
285;DHT22;127;48.770;9.212;2022-10-16T07:49:15;17.00;99.90
285;DHT22;127;48.770;9.212;2022-10-16T07:51:44;17.10;99.90
285;DHT22;127;48.770;9.212;2022-10-16T07:54:13;17.10;99.90
285;DHT22;127;48.770;9.212;2022-10-16T07:56:42;16.90;99.90
285;DHT22;127;48.770;9.212;2022-10-16T07:59:11;17.00;99.90
285;DHT22;127;48.770;9.212;2022-10-16T08:01:40;17.20;99.90
285;DHT22;127;48.770;9.212;2022-10-16T08:04:09;17.20;99.90
285;DHT22;127;48.770;9.212;2022-10-16T08:06:41;17.10;99.90
285;DHT22;127;48.770;9.212;2022-10-16T08:09:10;17.10;99.90
285;DHT22;127;48.770;9.212;2022-10-16T08:11:39;17.10;99.90
285;DHT22;127;48.770;9.212;2022-10-16T08:14:07;17.30;99.90
285;DHT22;127;48.770;9.212;2022-10-16T08:16:39;17.50;99.90
285;DHT22;127;48.770;9.212;2022-10-16T08:19:11;17.60;99.90
285;DHT22;127;48.770;9.212;2022-10-16T08:21:47;17.60;99.90
285;DHT22;127;48.770;9.212;2022-10-16T08:24:15;17.70;99.90
285;DHT22;127;48.770;9.212;2022-10-16T08:26:44;17.90;99.90
285;DHT22;127;48.770;9.212;2022-10-16T08:29:13;18.20;99.90
285;DHT22;127;48.770;9.212;2022-10-16T08:31:45;18.50;99.90
285;DHT22;127;48.770;9.212;2022-10-16T08:34:14;18.60;99.90
285;DHT22;127;48.770;9.212;2022-10-16T08:36:45;18.70;99.90
285;DHT22;127;48.770;9.212;2022-10-16T08:39:15;18.80;99.90
285;DHT22;127;48.770;9.212;2022-10-16T08:45:10;19.10;99.90
285;DHT22;127;48.770;9.212;2022-10-16T08:47:49;19.10;99.90
285;DHT22;127;48.770;9.212;2022-10-16T08:50:22;19.00;99.90
285;DHT22;127;48.770;9.212;2022-10-16T08:52:56;18.90;99.90
285;DHT22;127;48.770;9.212;2022-10-16T08:55:34;18.80;99.90
285;DHT22;127;48.770;9.212;2022-10-16T08:58:12;18.70;99.90
285;DHT22;127;48.770;9.212;2022-10-16T09:00:42;18.60;99.90
285;DHT22;127;48.770;9.212;2022-10-16T09:03:23;18.50;99.90
285;DHT22;127;48.770;9.212;2022-10-16T09:06:01;18.50;99.90
285;DHT22;127;48.770;9.212;2022-10-16T09:08:41;18.60;99.90
285;DHT22;127;48.770;9.212;2022-10-16T09:11:17;18.80;99.90
285;DHT22;127;48.770;9.212;2022-10-16T09:13:57;19.00;99.90
285;DHT22;127;48.770;9.212;2022-10-16T09:16:33;19.40;99.90
285;DHT22;127;48.770;9.212;2022-10-16T09:19:15;19.70;99.90
285;DHT22;127;48.770;9.212;2022-10-16T09:21:46;19.80;99.90
285;DHT22;127;48.770;9.212;2022-10-16T09:24:19;20.10;99.90
285;DHT22;127;48.770;9.212;2022-10-16T09:26:49;20.00;99.90
285;DHT22;127;48.770;9.212;2022-10-16T09:29:20;20.20;99.90
285;DHT22;127;48.770;9.212;2022-10-16T09:31:51;20.40;99.90
285;DHT22;127;48.770;9.212;2022-10-16T09:34:24;20.30;99.90
285;DHT22;127;48.770;9.212;2022-10-16T09:37:12;20.40;99.90
285;DHT22;127;48.770;9.212;2022-10-16T09:39:48;20.60;99.90
285;DHT22;127;48.770;9.212;2022-10-16T09:42:18;22.50;99.90
285;DHT22;127;48.770;9.212;2022-10-16T09:44:52;23.80;99.90
285;DHT22;127;48.770;9.212;2022-10-16T09:47:23;23.80;99.90
285;DHT22;127;48.770;9.212;2022-10-16T09:49:54;23.40;99.90
285;DHT22;127;48.770;9.212;2022-10-16T09:52:25;22.70;99.90
285;DHT22;127;48.770;9.212;2022-10-16T09:54:58;23.00;99.90
285;DHT22;127;48.770;9.212;2022-10-16T09:57:28;24.50;99.90
285;DHT22;127;48.770;9.212;2022-10-16T09:59:58;25.40;99.90
285;DHT22;127;48.770;9.212;2022-10-16T10:02:29;25.30;99.90
285;DHT22;127;48.770;9.212;2022-10-16T10:04:58;25.30;99.90
285;DHT22;127;48.770;9.212;2022-10-16T10:07:30;25.30;99.90
285;DHT22;127;48.770;9.212;2022-10-16T10:10:04;25.00;99.90
285;DHT22;127;48.770;9.212;2022-10-16T10:12:34;24.50;99.90
285;DHT22;127;48.770;9.212;2022-10-16T10:15:06;24.50;99.90
285;DHT22;127;48.770;9.212;2022-10-16T10:17:46;24.20;99.90
285;DHT22;127;48.770;9.212;2022-10-16T10:20:23;23.90;99.90
285;DHT22;127;48.770;9.212;2022-10-16T10:22:53;23.80;99.90
285;DHT22;127;48.770;9.212;2022-10-16T10:25:48;24.10;99.90
285;DHT22;127;48.770;9.212;2022-10-16T10:28:42;24.90;99.90
285;DHT22;127;48.770;9.212;2022-10-16T10:31:19;24.70;99.90
285;DHT22;127;48.770;9.212;2022-10-16T10:33:54;25.10;99.90
285;DHT22;127;48.770;9.212;2022-10-16T10:36:29;24.80;99.90
285;DHT22;127;48.770;9.212;2022-10-16T10:39:00;24.70;99.90
285;DHT22;127;48.770;9.212;2022-10-16T10:44:54;25.40;99.90
285;DHT22;127;48.770;9.212;2022-10-16T10:47:30;25.40;99.90
285;DHT22;127;48.770;9.212;2022-10-16T10:50:14;25.50;99.90
285;DHT22;127;48.770;9.212;2022-10-16T10:53:02;25.20;99.90
285;DHT22;127;48.770;9.212;2022-10-16T10:55:39;26.30;99.90
285;DHT22;127;48.770;9.212;2022-10-16T10:58:29;27.40;99.90
285;DHT22;127;48.770;9.212;2022-10-16T11:01:08;28.30;99.90
285;DHT22;127;48.770;9.212;2022-10-16T11:03:57;30.50;99.90
285;DHT22;127;48.770;9.212;2022-10-16T11:06:31;30.50;99.90
285;DHT22;127;48.770;9.212;2022-10-16T11:09:09;30.20;99.90
285;DHT22;127;48.770;9.212;2022-10-16T11:11:42;30.40;99.90
285;DHT22;127;48.770;9.212;2022-10-16T11:14:18;30.70;99.90
285;DHT22;127;48.770;9.212;2022-10-16T11:16:52;31.50;99.90
285;DHT22;127;48.770;9.212;2022-10-16T11:19:31;30.60;99.90
285;DHT22;127;48.770;9.212;2022-10-16T11:22:08;32.80;99.90
285;DHT22;127;48.770;9.212;2022-10-16T11:24:42;31.50;99.90
285;DHT22;127;48.770;9.212;2022-10-16T11:27:16;31.50;99.90
285;DHT22;127;48.770;9.212;2022-10-16T11:29:53;33.30;99.90
285;DHT22;127;48.770;9.212;2022-10-16T11:32:27;34.50;99.90
285;DHT22;127;48.770;9.212;2022-10-16T11:35:02;35.80;99.90
285;DHT22;127;48.770;9.212;2022-10-16T11:37:36;35.70;99.90
285;DHT22;127;48.770;9.212;2022-10-16T11:40:19;33.90;99.90
285;DHT22;127;48.770;9.212;2022-10-16T11:42:54;34.80;99.90
285;DHT22;127;48.770;9.212;2022-10-16T11:45:33;36.10;99.90
285;DHT22;127;48.770;9.212;2022-10-16T11:48:12;33.80;99.90
285;DHT22;127;48.770;9.212;2022-10-16T11:50:51;31.30;99.90
285;DHT22;127;48.770;9.212;2022-10-16T11:53:31;33.00;99.90
285;DHT22;127;48.770;9.212;2022-10-16T11:56:04;33.60;99.90
285;DHT22;127;48.770;9.212;2022-10-16T11:58:37;34.30;99.90
285;DHT22;127;48.770;9.212;2022-10-16T12:01:16;35.50;99.90
285;DHT22;127;48.770;9.212;2022-10-16T12:03:50;36.80;99.90
285;DHT22;127;48.770;9.212;2022-10-16T12:06:31;36.90;99.90
285;DHT22;127;48.770;9.212;2022-10-16T12:09:03;37.80;99.90
285;DHT22;127;48.770;9.212;2022-10-16T12:11:35;38.20;99.90
285;DHT22;127;48.770;9.212;2022-10-16T12:14:19;38.10;99.90
285;DHT22;127;48.770;9.212;2022-10-16T12:16:58;38.20;99.90
285;DHT22;127;48.770;9.212;2022-10-16T12:19:29;34.70;99.90
285;DHT22;127;48.770;9.212;2022-10-16T12:21:59;33.70;99.90
285;DHT22;127;48.770;9.212;2022-10-16T12:24:35;35.70;99.90
285;DHT22;127;48.770;9.212;2022-10-16T12:27:06;34.20;99.90
285;DHT22;127;48.770;9.212;2022-10-16T12:29:37;34.20;99.90
285;DHT22;127;48.770;9.212;2022-10-16T12:32:27;35.70;99.90
285;DHT22;127;48.770;9.212;2022-10-16T12:34:57;35.40;99.90
285;DHT22;127;48.770;9.212;2022-10-16T12:37:28;35.40;99.90
285;DHT22;127;48.770;9.212;2022-10-16T12:39:58;33.20;99.90
285;DHT22;127;48.770;9.212;2022-10-16T12:42:34;31.60;99.90
285;DHT22;127;48.770;9.212;2022-10-16T12:45:22;31.40;99.90
285;DHT22;127;48.770;9.212;2022-10-16T12:47:55;31.50;99.90
285;DHT22;127;48.770;9.212;2022-10-16T12:50:33;33.20;99.90
285;DHT22;127;48.770;9.212;2022-10-16T12:53:03;34.90;99.90
285;DHT22;127;48.770;9.212;2022-10-16T12:55:46;34.90;99.90
285;DHT22;127;48.770;9.212;2022-10-16T13:01:12;32.90;99.90
285;DHT22;127;48.770;9.212;2022-10-16T13:04:00;30.40;99.90
285;DHT22;127;48.770;9.212;2022-10-16T13:06:37;29.20;99.90
285;DHT22;127;48.770;9.212;2022-10-16T13:09:29;28.20;99.90
285;DHT22;127;48.770;9.212;2022-10-16T13:12:23;27.70;99.90
285;DHT22;127;48.770;9.212;2022-10-16T13:15:29;27.10;99.90
285;DHT22;127;48.770;9.212;2022-10-16T13:18:05;26.80;99.90
285;DHT22;127;48.770;9.212;2022-10-16T13:20:53;28.50;99.90
285;DHT22;127;48.770;9.212;2022-10-16T13:23:31;29.90;99.90
285;DHT22;127;48.770;9.212;2022-10-16T13:26:09;29.00;99.90
285;DHT22;127;48.770;9.212;2022-10-16T13:28:41;29.00;99.90
285;DHT22;127;48.770;9.212;2022-10-16T13:31:15;29.00;99.90
285;DHT22;127;48.770;9.212;2022-10-16T13:33:47;27.70;99.90
285;DHT22;127;48.770;9.212;2022-10-16T13:36:24;26.60;99.90
285;DHT22;127;48.770;9.212;2022-10-16T13:39:10;26.60;99.90
285;DHT22;127;48.770;9.212;2022-10-16T13:41:40;26.10;99.90
285;DHT22;127;48.770;9.212;2022-10-16T13:44:15;26.10;99.90
285;DHT22;127;48.770;9.212;2022-10-16T13:46:45;25.60;99.90
285;DHT22;127;48.770;9.212;2022-10-16T13:49:15;25.50;99.90
285;DHT22;127;48.770;9.212;2022-10-16T13:51:58;25.40;99.90
285;DHT22;127;48.770;9.212;2022-10-16T13:54:27;25.40;99.90
285;DHT22;127;48.770;9.212;2022-10-16T13:57:04;25.40;99.90
285;DHT22;127;48.770;9.212;2022-10-16T13:59:35;25.20;99.90
285;DHT22;127;48.770;9.212;2022-10-16T14:02:14;25.30;99.90
285;DHT22;127;48.770;9.212;2022-10-16T14:04:45;25.40;99.90
285;DHT22;127;48.770;9.212;2022-10-16T14:07:22;25.20;99.90
285;DHT22;127;48.770;9.212;2022-10-16T14:09:52;24.80;99.90
285;DHT22;127;48.770;9.212;2022-10-16T14:12:22;24.40;99.90
285;DHT22;127;48.770;9.212;2022-10-16T14:14:53;24.30;99.90
285;DHT22;127;48.770;9.212;2022-10-16T14:17:25;24.10;99.90
285;DHT22;127;48.770;9.212;2022-10-16T14:19:56;23.90;99.90
285;DHT22;127;48.770;9.212;2022-10-16T14:22:30;24.20;99.90
285;DHT22;127;48.770;9.212;2022-10-16T14:25:01;24.60;99.90
285;DHT22;127;48.770;9.212;2022-10-16T14:27:31;23.70;99.90
285;DHT22;127;48.770;9.212;2022-10-16T14:30:15;23.20;99.90
285;DHT22;127;48.770;9.212;2022-10-16T14:32:54;23.10;99.90
285;DHT22;127;48.770;9.212;2022-10-16T14:35:33;23.00;99.90
285;DHT22;127;48.770;9.212;2022-10-16T14:38:06;22.90;99.90
285;DHT22;127;48.770;9.212;2022-10-16T14:40:36;22.80;99.90
285;DHT22;127;48.770;9.212;2022-10-16T14:43:05;22.90;99.90
285;DHT22;127;48.770;9.212;2022-10-16T14:45:35;23.10;99.90
285;DHT22;127;48.770;9.212;2022-10-16T14:48:16;23.00;99.90
285;DHT22;127;48.770;9.212;2022-10-16T14:50:46;22.90;99.90
285;DHT22;127;48.770;9.212;2022-10-16T14:53:18;22.90;99.90
285;DHT22;127;48.770;9.212;2022-10-16T14:55:47;23.20;99.90
285;DHT22;127;48.770;9.212;2022-10-16T14:58:17;23.30;99.90
285;DHT22;127;48.770;9.212;2022-10-16T15:00:47;23.30;99.90
285;DHT22;127;48.770;9.212;2022-10-16T15:03:16;23.30;99.90
285;DHT22;127;48.770;9.212;2022-10-16T15:05:45;23.40;99.90
285;DHT22;127;48.770;9.212;2022-10-16T15:08:13;23.80;99.90
285;DHT22;127;48.770;9.212;2022-10-16T15:10:44;23.70;99.90
285;DHT22;127;48.770;9.212;2022-10-16T15:13:14;23.70;99.90
285;DHT22;127;48.770;9.212;2022-10-16T15:15:44;23.60;99.90
285;DHT22;127;48.770;9.212;2022-10-16T15:18:14;23.50;99.90
285;DHT22;127;48.770;9.212;2022-10-16T15:20:48;23.40;99.90
285;DHT22;127;48.770;9.212;2022-10-16T15:23:18;23.40;99.90
285;DHT22;127;48.770;9.212;2022-10-16T15:25:52;23.50;99.90
285;DHT22;127;48.770;9.212;2022-10-16T15:28:23;23.70;99.90
285;DHT22;127;48.770;9.212;2022-10-16T15:30:53;23.70;99.90
285;DHT22;127;48.770;9.212;2022-10-16T15:33:24;23.70;99.90
285;DHT22;127;48.770;9.212;2022-10-16T15:35:54;23.60;99.90
285;DHT22;127;48.770;9.212;2022-10-16T15:38:27;23.30;99.90
285;DHT22;127;48.770;9.212;2022-10-16T15:41:00;23.00;99.90
285;DHT22;127;48.770;9.212;2022-10-16T15:43:29;22.70;99.90
285;DHT22;127;48.770;9.212;2022-10-16T15:46:02;22.50;99.90
285;DHT22;127;48.770;9.212;2022-10-16T15:48:32;22.20;99.90
285;DHT22;127;48.770;9.212;2022-10-16T15:51:05;22.10;99.90
285;DHT22;127;48.770;9.212;2022-10-16T15:53:34;22.10;99.90
285;DHT22;127;48.770;9.212;2022-10-16T15:56:07;22.00;99.90
285;DHT22;127;48.770;9.212;2022-10-16T15:58:36;21.90;99.90
285;DHT22;127;48.770;9.212;2022-10-16T16:01:05;21.70;99.90
285;DHT22;127;48.770;9.212;2022-10-16T16:03:36;21.50;99.90
285;DHT22;127;48.770;9.212;2022-10-16T16:06:07;21.20;99.90
285;DHT22;127;48.770;9.212;2022-10-16T16:08:36;21.00;99.90
285;DHT22;127;48.770;9.212;2022-10-16T16:11:11;21.00;99.90
285;DHT22;127;48.770;9.212;2022-10-16T16:13:40;20.90;99.90
285;DHT22;127;48.770;9.212;2022-10-16T16:16:10;20.70;99.90
285;DHT22;127;48.770;9.212;2022-10-16T16:18:39;20.50;99.90
285;DHT22;127;48.770;9.212;2022-10-16T16:21:09;20.40;99.90
285;DHT22;127;48.770;9.212;2022-10-16T16:23:38;20.30;99.90
285;DHT22;127;48.770;9.212;2022-10-16T16:26:11;20.20;99.90
285;DHT22;127;48.770;9.212;2022-10-16T16:28:42;19.90;99.90
285;DHT22;127;48.770;9.212;2022-10-16T16:31:11;19.80;99.90
285;DHT22;127;48.770;9.212;2022-10-16T16:33:39;19.50;99.90
285;DHT22;127;48.770;9.212;2022-10-16T16:36:08;19.40;99.90
285;DHT22;127;48.770;9.212;2022-10-16T16:38:37;19.20;99.90
285;DHT22;127;48.770;9.212;2022-10-16T16:41:16;19.10;99.90
285;DHT22;127;48.770;9.212;2022-10-16T16:43:45;18.90;99.90
285;DHT22;127;48.770;9.212;2022-10-16T16:46:14;18.90;99.90
285;DHT22;127;48.770;9.212;2022-10-16T16:48:44;18.70;99.90
285;DHT22;127;48.770;9.212;2022-10-16T16:51:16;18.60;99.90
285;DHT22;127;48.770;9.212;2022-10-16T16:53:47;18.60;99.90
285;DHT22;127;48.770;9.212;2022-10-16T16:56:20;18.50;99.90
285;DHT22;127;48.770;9.212;2022-10-16T16:58:50;18.50;99.90
285;DHT22;127;48.770;9.212;2022-10-16T17:01:20;18.40;99.90
285;DHT22;127;48.770;9.212;2022-10-16T17:03:50;18.30;99.90
285;DHT22;127;48.770;9.212;2022-10-16T17:06:20;18.20;99.90
285;DHT22;127;48.770;9.212;2022-10-16T17:08:50;18.10;99.90
285;DHT22;127;48.770;9.212;2022-10-16T17:11:23;18.00;99.90
285;DHT22;127;48.770;9.212;2022-10-16T17:13:53;18.00;99.90
285;DHT22;127;48.770;9.212;2022-10-16T17:16:24;17.90;99.90
285;DHT22;127;48.770;9.212;2022-10-16T17:18:53;17.80;99.90
285;DHT22;127;48.770;9.212;2022-10-16T17:21:22;17.80;99.90
285;DHT22;127;48.770;9.212;2022-10-16T17:23:52;17.70;99.90
285;DHT22;127;48.770;9.212;2022-10-16T17:26:23;17.70;99.90